Time;durP1;ratioP1;P1;durP2;ratioP2;P2;SDS_P1;SDS_P2;PMS_P1;PMS_P2;Temp;Humidity;BMP_temperature;BMP_pressure;BME280_temperature;BME280_humidity;BME280_pressure;Samples;Min_cycle;Max_cycle;Signal;HPM_P1;HPM_P2
2022/02/09 00:00:45;;;;;;;3.80;3.50;;;9.70;99.90;;;;;;5051671;28;20416;-69
2022/02/09 00:03:18;;;;;;;2.97;2.67;;;9.60;99.90;;;;;;5044185;28;20554;-69
2022/02/09 00:43:07;;;;;;;3.07;2.87;;;9.40;99.90;;;;;;5054183;28;20983;-68
2022/02/09 01:40:09;;;;;;;8.00;5.80;;;9.50;99.90;;;;;;5035672;28;20416;-69
2022/02/09 01:43:32;;;;;;;5.17;4.77;;;9.50;99.90;;;;;;5043622;28;20478;-69
2022/02/09 01:56:26;;;;;;;6.27;5.57;;;9.50;99.90;;;;;;5052737;28;20390;-68
2022/02/09 01:58:53;;;;;;;7.00;5.60;;;9.50;99.90;;;;;;5054091;28;20451;-68
2022/02/09 02:01:19;;;;;;;7.97;6.90;;;9.50;99.90;;;;;;5054221;28;20180;-69
2022/02/09 02:03:44;;;;;;;7.13;6.10;;;9.50;99.90;;;;;;5053993;28;20829;-69
2022/02/09 02:06:12;;;;;;;7.63;6.67;;;9.50;99.90;;;;;;5053741;28;20451;-70
2022/02/09 02:08:38;;;;;;;6.63;5.90;;;9.50;99.90;;;;;;5036726;28;20194;-69
2022/02/09 02:14:01;;;;;;;6.73;6.13;;;9.40;99.90;;;;;;5054161;28;20170;-68
2022/02/09 02:16:42;;;;;;;7.57;6.88;;;9.50;99.90;;;;;;5052390;28;20438;-68
2022/02/09 02:19:15;;;;;;;6.80;6.13;;;9.50;99.90;;;;;;5058118;28;20190;-68
2022/02/09 02:30:51;;;;;;;7.30;6.50;;;9.40;99.90;;;;;;5069194;28;20428;-68
2022/02/09 02:41:47;;;;;;;7.90;7.10;;;9.40;99.90;;;;;;5035267;28;20414;-68
2022/02/09 02:57:10;;;;;;;9.97;8.40;;;9.40;99.90;;;;;;5052731;28;21186;-68
2022/02/09 03:08:25;;;;;;;10.03;9.03;;;9.50;99.90;;;;;;5051811;28;20448;-70
2022/02/09 03:10:55;;;;;;;10.60;9.50;;;9.40;99.90;;;;;;5052113;28;20423;-69
2022/02/09 03:13:26;;;;;;;11.73;9.63;;;9.40;99.90;;;;;;5052387;28;20430;-71
2022/02/09 03:15:58;;;;;;;10.70;9.60;;;9.40;99.90;;;;;;5033732;28;20403;-68
2022/02/09 03:18:36;;;;;;;10.23;9.20;;;9.40;99.90;;;;;;5051749;28;20521;-69
2022/02/09 03:23:54;;;;;;;12.87;10.27;;;9.30;99.90;;;;;;5052440;28;20447;-68
2022/02/09 03:26:53;;;;;;;11.00;9.67;;;9.20;99.90;;;;;;5034035;28;20416;-68
2022/02/09 03:30:58;;;;;;;11.40;9.30;;;9.10;99.90;;;;;;5053169;28;20436;-68
2022/02/09 03:48:51;;;;;;;10.33;9.30;;;9.30;99.90;;;;;;5059984;28;20424;-69
2022/02/09 03:53:58;;;;;;;11.20;10.00;;;9.30;99.90;;;;;;5056124;28;20412;-69
2022/02/09 03:56:57;;;;;;;11.60;10.23;;;9.30;99.90;;;;;;5055653;28;20426;-70
2022/02/09 03:59:12;;;;;;;12.00;10.60;;;9.30;99.90;;;;;;5048560;22;20504;-68
2022/02/09 04:01:40;;;;;;;13.15;11.85;;;9.30;99.90;;;;;;4997814;28;20447;-68
2022/02/09 04:04:06;;;;;;;13.47;11.50;;;9.30;99.90;;;;;;5011743;28;20251;-70
2022/02/09 04:06:35;;;;;;;16.10;10.90;;;9.30;99.90;;;;;;5014418;28;20841;-69
2022/02/09 04:09:05;;;;;;;12.97;11.20;;;9.30;99.90;;;;;;5015066;28;20260;-69
2022/02/09 04:11:37;;;;;;;12.17;10.87;;;9.30;99.90;;;;;;5017975;28;20416;-69
2022/02/09 04:19:12;;;;;;;12.53;11.07;;;9.30;99.90;;;;;;5034096;28;20425;-69
2022/02/09 04:41:16;;;;;;;10.50;8.70;;;9.10;99.90;;;;;;5033437;28;20976;-69
2022/02/09 04:43:47;;;;;;;11.30;8.90;;;9.10;99.90;;;;;;5034920;28;20226;-69
2022/02/09 04:52:26;;;;;;;10.07;8.47;;;9.00;99.90;;;;;;5033799;28;20417;-70
2022/02/09 04:54:40;;;;;;;13.77;7.97;;;9.10;99.90;;;;;;5027727;28;20468;-68
2022/02/09 04:57:14;;;;;;;8.33;7.50;;;9.10;99.90;;;;;;5033441;28;20400;-69
2022/02/09 04:59:49;;;;;;;8.03;7.33;;;9.10;99.90;;;;;;5033382;28;20984;-69
2022/02/09 05:05:24;;;;;;;8.37;7.20;;;9.00;99.90;;;;;;5018771;28;20572;-69
2022/02/09 05:19:41;;;;;;;6.40;5.80;;;9.10;99.90;;;;;;5033541;28;20435;-70
2022/02/09 05:22:11;;;;;;;8.00;5.57;;;9.10;99.90;;;;;;5032754;28;20423;-69
2022/02/09 05:27:04;;;;;;;6.23;5.63;;;9.10;99.90;;;;;;5033028;28;20497;-68
2022/02/09 05:29:30;;;;;;;5.77;5.27;;;9.10;99.90;;;;;;5033628;28;20621;-69
2022/02/09 05:31:56;;;;;;;5.97;5.00;;;9.10;99.90;;;;;;5033064;28;20416;-69
2022/02/09 05:34:22;;;;;;;5.70;5.13;;;9.10;99.90;;;;;;5032436;28;20261;-69
2022/02/09 05:36:47;;;;;;;6.90;5.83;;;9.00;99.90;;;;;;5031489;28;20509;-68
2022/02/09 05:39:13;;;;;;;5.40;4.90;;;9.10;99.90;;;;;;5014987;28;20270;-68
2022/02/09 05:41:44;;;;;;;6.30;5.70;;;9.20;99.90;;;;;;5032753;28;20705;-69
2022/02/09 05:44:12;;;;;;;5.77;5.00;;;9.20;99.90;;;;;;5032265;28;20786;-68
2022/02/09 05:51:54;;;;;;;6.00;4.50;;;9.10;99.90;;;;;;5032271;28;20906;-69
2022/02/09 05:59:37;;;;;;;4.37;3.97;;;9.10;99.90;;;;;;5012192;28;20459;-69
2022/02/09 06:02:05;;;;;;;4.47;3.83;;;9.10;99.90;;;;;;5011162;28;20482;-68
2022/02/09 06:04:30;;;;;;;5.63;3.90;;;9.10;99.90;;;;;;5021314;28;20449;-68
2022/02/09 06:06:57;;;;;;;4.33;3.90;;;9.20;99.90;;;;;;5020669;28;20551;-69
2022/02/09 06:09:22;;;;;;;4.23;3.83;;;9.20;99.90;;;;;;4997402;28;20793;-69
2022/02/09 06:12:05;;;;;;;4.60;4.20;;;9.20;99.90;;;;;;5003437;28;20451;-69
2022/02/09 06:14:52;;;;;;;5.70;4.27;;;9.20;99.90;;;;;;5009158;28;20209;-69
2022/02/09 06:20:07;;;;;;;6.20;4.83;;;9.10;99.90;;;;;;5010761;28;20451;-68
2022/02/09 06:22:33;;;;;;;5.70;5.10;;;9.20;99.90;;;;;;5012322;28;20567;-68
2022/02/09 06:24:59;;;;;;;6.70;5.83;;;9.20;99.90;;;;;;5008114;28;20502;-69
2022/02/09 06:27:24;;;;;;;5.80;5.30;;;9.20;99.90;;;;;;5013440;28;20472;-69
2022/02/09 06:29:50;;;;;;;5.57;5.07;;;9.20;99.90;;;;;;5009375;28;20896;-68
2022/02/09 06:32:18;;;;;;;5.43;4.93;;;9.20;99.90;;;;;;5013503;28;20218;-70
2022/02/09 06:34:45;;;;;;;7.40;5.43;;;9.20;99.90;;;;;;5012617;28;20198;-72
2022/02/09 06:37:17;;;;;;;6.23;5.50;;;9.20;99.90;;;;;;5008968;28;20462;-68
2022/02/09 06:39:45;;;;;;;7.37;6.67;;;9.20;99.90;;;;;;4995828;28;20603;-69
2022/02/09 06:42:11;;;;;;;6.87;5.70;;;9.20;99.90;;;;;;5012149;28;20969;-68
2022/02/09 06:44:37;;;;;;;8.37;7.03;;;9.20;99.90;;;;;;5012514;28;20459;-68
2022/02/09 06:47:04;;;;;;;8.70;6.80;;;9.20;99.90;;;;;;5007307;28;20997;-69
2022/02/09 06:49:31;;;;;;;9.73;7.23;;;9.30;99.90;;;;;;5015524;28;20453;-68
2022/02/09 06:51:56;;;;;;;7.60;6.20;;;9.20;99.90;;;;;;5017208;28;20959;-69
2022/02/09 06:54:30;;;;;;;7.87;6.67;;;9.20;99.90;;;;;;5008016;28;20544;-68
2022/02/09 06:57:09;;;;;;;8.90;7.07;;;9.20;99.90;;;;;;5010502;28;20195;-69
2022/02/09 06:59:38;;;;;;;6.97;5.97;;;9.30;99.90;;;;;;5011410;28;20854;-68
2022/02/09 07:02:05;;;;;;;7.67;6.70;;;9.30;99.90;;;;;;4995984;28;20476;-68
2022/02/09 07:04:36;;;;;;;8.23;7.30;;;9.40;99.90;;;;;;5011426;28;21025;-69
2022/02/09 07:07:03;;;;;;;8.97;7.40;;;9.40;99.90;;;;;;5017784;28;20437;-69
2022/02/09 07:09:28;;;;;;;10.37;7.03;;;9.30;99.90;;;;;;5008585;28;20451;-67
2022/02/09 07:11:55;;;;;;;7.97;7.00;;;9.40;99.90;;;;;;5022812;28;20425;-71
2022/02/09 07:14:24;;;;;;;8.80;7.37;;;9.30;99.90;;;;;;5025652;28;20187;-68
2022/02/09 07:16:50;;;;;;;10.37;8.13;;;9.30;99.90;;;;;;5006102;28;20430;-68
2022/02/09 07:19:16;;;;;;;10.15;8.40;;;9.30;99.90;;;;;;5019746;28;20413;-68
2022/02/09 07:21:42;;;;;;;10.10;7.43;;;9.40;99.90;;;;;;5030598;28;20192;-68
2022/02/09 07:24:13;;;;;;;9.20;8.20;;;9.40;99.90;;;;;;5028885;28;20260;-68
2022/02/09 07:29:11;;;;;;;12.57;9.23;;;9.40;99.90;;;;;;5010770;28;20826;-67
2022/02/09 07:31:36;;;;;;;10.07;8.37;;;9.30;99.90;;;;;;5018266;28;20447;-68
2022/02/09 07:34:03;;;;;;;11.57;8.53;;;9.30;99.90;;;;;;5029399;28;20432;-69
2022/02/09 07:36:31;;;;;;;9.50;8.10;;;9.40;99.90;;;;;;5011283;28;20178;-68
2022/02/09 07:38:57;;;;;;;9.50;8.50;;;9.40;99.90;;;;;;5011467;28;20512;-69
2022/02/09 07:41:23;;;;;;;9.50;8.60;;;9.40;99.90;;;;;;5010770;28;20429;-69
2022/02/09 07:44:04;;;;;;;13.37;8.13;;;9.40;99.90;;;;;;5031021;28;20468;-69
2022/02/09 07:53:58;;;;;;;11.53;8.90;;;9.40;99.90;;;;;;5020942;28;20217;-68
2022/02/09 07:56:32;;;;;;;10.60;9.50;;;9.40;99.90;;;;;;5026792;28;20418;-68
2022/02/09 07:58:59;;;;;;;11.13;9.00;;;9.40;99.90;;;;;;5009054;28;20855;-68
2022/02/09 08:01:25;;;;;;;9.37;7.93;;;9.40;99.90;;;;;;5022750;28;20428;-68
2022/02/09 08:03:51;;;;;;;9.17;7.87;;;9.40;99.90;;;;;;5021658;28;20457;-67
2022/02/09 08:06:18;;;;;;;9.47;8.43;;;9.40;99.90;;;;;;5027167;28;20414;-69
2022/02/09 08:08:45;;;;;;;9.40;8.27;;;9.40;99.90;;;;;;5027471;28;20483;-69
2022/02/09 08:25:48;;;;;;;11.33;8.97;;;9.20;99.90;;;;;;5030434;28;20428;-67
2022/02/09 08:29:58;;;;;;;12.00;8.07;;;9.30;99.90;;;;;;5030523;28;20437;-70
2022/02/09 08:34:52;;;;;;;11.27;9.53;;;9.30;99.90;;;;;;5030076;28;20515;-69
2022/02/09 08:37:18;;;;;;;7.97;7.17;;;9.30;99.90;;;;;;5024212;28;20529;-68
2022/02/09 08:39:43;;;;;;;8.70;7.57;;;9.30;99.90;;;;;;5019119;28;20199;-69
2022/02/09 08:42:09;;;;;;;9.87;7.87;;;9.30;99.90;;;;;;5010062;28;20207;-69
2022/02/09 08:44:34;;;;;;;11.17;8.13;;;9.30;99.90;;;;;;5008506;28;20177;-69
2022/02/09 08:47:00;;;;;;;10.97;7.90;;;9.40;99.90;;;;;;5010286;28;20179;-69
2022/02/09 08:49:28;;;;;;;11.13;8.30;;;9.40;99.90;;;;;;5028083;28;20688;-70
2022/02/09 08:51:56;;;;;;;9.40;8.07;;;9.30;99.90;;;;;;5029859;28;20324;-68
2022/02/09 08:54:21;;;;;;;9.40;7.77;;;9.40;99.90;;;;;;5025433;28;20418;-67
2022/02/09 08:56:47;;;;;;;9.43;7.23;;;9.50;99.90;;;;;;5008457;28;20965;-69
2022/02/09 08:59:12;;;;;;;8.20;6.90;;;9.50;99.90;;;;;;5012413;28;20614;-69
2022/02/09 09:01:42;;;;;;;9.70;6.83;;;9.50;99.90;;;;;;5030047;28;20915;-69
2022/02/09 09:04:33;;;;;;;9.77;7.20;;;9.60;99.90;;;;;;5029462;28;20245;-68
2022/02/09 09:06:57;;;;;;;8.47;6.40;;;9.60;99.90;;;;;;5028184;28;20421;-69
2022/02/09 09:14:49;;;;;;;7.63;6.00;;;9.70;99.90;;;;;;5020978;28;20433;-69
2022/02/09 09:58:01;;;;;;;5.10;3.37;;;9.80;99.90;;;;;;5028982;28;20475;-70
2022/02/09 09:59:01;;;;;;;4.03;3.40;;;10.20;99.90;;;;;;5029145;28;21019;-70
2022/02/09 10:04:14;;;;;;;4.77;3.77;;;10.10;99.90;;;;;;5028174;28;20845;-69
2022/02/09 10:32:58;;;;;;;6.13;5.40;;;10.00;99.90;;;;;;4988702;28;20479;-68
2022/02/09 10:35:30;;;;;;;8.20;5.77;;;10.00;99.90;;;;;;4999504;28;20504;-69
2022/02/09 10:37:59;;;;;;;6.80;6.10;;;10.00;99.90;;;;;;5027287;28;20840;-68
2022/02/09 10:40:39;;;;;;;8.13;6.57;;;10.00;99.90;;;;;;5027968;28;20437;-68
2022/02/09 10:43:26;;;;;;;7.60;6.90;;;10.00;99.90;;;;;;5028035;28;20445;-68
2022/02/09 10:45:53;;;;;;;9.63;6.87;;;10.00;99.90;;;;;;5020181;28;21203;-70
2022/02/09 10:48:36;;;;;;;8.53;7.00;;;10.00;99.90;;;;;;5007706;28;20409;-68
2022/02/09 10:54:21;;;;;;;9.53;6.90;;;10.00;99.90;;;;;;4927288;29;20465;-69
2022/02/09 10:56:51;;;;;;;10.43;6.90;;;10.00;99.90;;;;;;4927920;29;20418;-68
2022/02/09 10:59:20;;;;;;;7.27;6.40;;;10.00;99.90;;;;;;4933165;28;20848;-69
2022/02/09 11:01:46;;;;;;;8.93;6.60;;;10.00;99.90;;;;;;4948767;29;20425;-69
2022/02/09 11:04:13;;;;;;;8.30;7.40;;;10.00;99.90;;;;;;4946704;29;20425;-69
2022/02/09 11:06:43;;;;;;;8.23;6.83;;;10.00;99.90;;;;;;4946464;29;20425;-68
2022/02/09 11:09:12;;;;;;;9.03;7.23;;;10.00;99.90;;;;;;4946952;29;20460;-70
2022/02/09 11:11:40;;;;;;;7.87;6.90;;;9.90;99.90;;;;;;4948636;28;20882;-68
2022/02/09 11:14:10;;;;;;;7.63;6.93;;;10.00;99.90;;;;;;4949133;29;20429;-69
2022/02/09 11:16:36;;;;;;;10.30;7.23;;;10.00;99.90;;;;;;4948057;29;20873;-70
2022/02/09 11:19:02;;;;;;;11.40;6.93;;;10.00;99.90;;;;;;4947208;29;20849;-68
2022/02/09 11:21:32;;;;;;;10.40;7.33;;;10.00;99.90;;;;;;5027048;22;20508;-68
2022/02/09 11:24:00;;;;;;;9.10;7.03;;;9.90;99.90;;;;;;5036547;28;20454;-68
2022/02/09 11:26:37;;;;;;;9.13;6.67;;;9.90;99.90;;;;;;5028055;28;20415;-68
2022/02/09 11:29:38;;;;;;;11.50;7.70;;;9.90;99.90;;;;;;5042847;28;20416;-68
2022/02/09 11:43:24;;;;;;;11.10;10.00;;;9.90;99.90;;;;;;5070196;28;20477;-69
2022/02/09 11:46:17;;;;;;;10.13;9.07;;;9.90;99.90;;;;;;5046220;28;20418;-69
2022/02/09 11:52:01;;;;;;;11.53;8.80;;;9.90;99.90;;;;;;5074920;28;20419;-69
2022/02/09 12:10:51;;;;;;;9.40;7.30;;;10.30;99.90;;;;;;5077252;28;20490;-69
2022/02/09 12:19:03;;;;;;;11.20;7.87;;;10.30;99.90;;;;;;5065271;28;20440;-69
2022/02/09 12:21:49;;;;;;;9.40;7.03;;;10.40;99.90;;;;;;5086181;28;20459;-69
2022/02/09 12:24:20;;;;;;;13.53;7.57;;;10.50;99.90;;;;;;5098109;28;20455;-69
2022/02/09 12:27:01;;;;;;;8.30;7.40;;;10.60;99.90;;;;;;5075888;28;20471;-70
2022/02/09 12:29:34;;;;;;;7.13;6.43;;;10.60;99.90;;;;;;5072245;28;20447;-70
2022/02/09 12:32:15;;;;;;;9.30;6.20;;;10.70;99.90;;;;;;5070447;28;20998;-71
2022/02/09 12:34:53;;;;;;;9.30;6.53;;;10.60;99.90;;;;;;5059345;28;20459;-70
2022/02/09 12:37:19;;;;;;;7.37;5.90;;;10.60;99.90;;;;;;5070118;28;20431;-70
2022/02/09 12:39:54;;;;;;;7.90;6.00;;;10.70;99.90;;;;;;5086546;28;20446;-69
2022/02/09 12:42:20;;;;;;;7.13;5.60;;;10.70;99.90;;;;;;5072644;28;20896;-69
2022/02/09 12:45:07;;;;;;;6.97;5.30;;;10.70;99.90;;;;;;5089022;28;20431;-69
2022/02/09 12:47:56;;;;;;;6.13;5.23;;;10.70;99.90;;;;;;5049688;28;20420;-70
2022/02/09 12:50:35;;;;;;;6.70;5.13;;;10.70;99.90;;;;;;5048356;28;20464;-70
2022/02/09 12:53:02;;;;;;;6.47;5.10;;;10.70;99.90;;;;;;5060512;28;20439;-70
2022/02/09 12:55:32;;;;;;;7.10;5.13;;;10.80;99.90;;;;;;5063708;28;20819;-68
2022/02/09 12:58:08;;;;;;;5.93;5.43;;;10.80;99.90;;;;;;5069906;28;20435;-70
2022/02/09 13:00:45;;;;;;;5.07;4.53;;;10.70;99.90;;;;;;5063235;28;20553;-70
2022/02/09 13:03:12;;;;;;;11.07;4.77;;;10.70;99.90;;;;;;5063792;28;20463;-69
2022/02/09 13:05:57;;;;;;;6.73;3.70;;;10.80;99.90;;;;;;5065500;28;20472;-69
2022/02/09 13:08:25;;;;;;;7.43;4.23;;;10.70;99.90;;;;;;5067594;28;20459;-69
2022/02/09 13:11:03;;;;;;;6.43;4.37;;;10.70;99.90;;;;;;5065877;28;21030;-69
2022/02/09 13:13:31;;;;;;;5.97;4.30;;;10.70;99.90;;;;;;5070564;28;20415;-69
2022/02/09 13:16:11;;;;;;;4.73;4.33;;;10.80;99.90;;;;;;5070523;28;20834;-71
2022/02/09 14:03:48;;;;;;;7.77;5.40;;;10.70;99.90;;;;;;5055585;28;20874;-69
2022/02/09 14:14:45;;;;;;;5.10;4.60;;;10.70;99.90;;;;;;5066424;28;20184;-70
2022/02/09 14:54:55;;;;;;;7.17;4.03;;;10.80;99.90;;;;;;5094596;28;20399;-68
2022/02/09 14:57:36;;;;;;;5.30;4.17;;;10.80;99.90;;;;;;5094879;28;20436;-69
2022/02/09 15:00:10;;;;;;;9.40;4.40;;;10.80;99.90;;;;;;5093890;28;20427;-69
2022/02/09 15:02:50;;;;;;;5.73;3.80;;;10.90;99.90;;;;;;5076855;28;20955;-69
2022/02/09 15:08:25;;;;;;;5.60;3.87;;;11.00;99.90;;;;;;5091596;28;20391;-70
2022/02/09 15:13:28;;;;;;;6.50;4.43;;;10.80;99.90;;;;;;5073618;28;20455;-69
2022/02/09 15:16:08;;;;;;;5.60;4.50;;;10.90;99.90;;;;;;5073677;28;20162;-69
2022/02/09 15:19:27;;;;;;;5.93;3.70;;;10.90;99.90;;;;;;5073180;28;21202;-70
2022/02/09 15:23:47;;;;;;;5.93;4.07;;;10.90;99.90;;;;;;5073378;28;20490;-70
2022/02/09 15:26:13;;;;;;;4.07;3.70;;;10.90;99.90;;;;;;5076474;28;20173;-69
2022/02/09 15:28:39;;;;;;;5.40;3.67;;;10.90;99.90;;;;;;5075894;28;20964;-70
2022/02/09 15:31:10;;;;;;;5.73;3.57;;;10.90;99.90;;;;;;5060067;28;20532;-71
2022/02/09 15:33:49;;;;;;;10.73;5.10;;;10.90;99.90;;;;;;5060804;28;20165;-70
2022/02/09 15:36:18;;;;;;;9.83;4.40;;;10.90;99.90;;;;;;5078352;28;20794;-70
2022/02/09 15:38:47;;;;;;;5.87;4.20;;;10.90;99.90;;;;;;5078464;28;20892;-70
2022/02/09 15:41:25;;;;;;;4.53;3.90;;;10.90;99.90;;;;;;5077908;28;20445;-70
2022/02/09 16:09:07;;;;;;;5.60;4.90;;;10.80;99.90;;;;;;5017391;28;20406;-69
2022/02/09 16:16:26;;;;;;;5.80;4.20;;;10.80;99.90;;;;;;5018164;28;21013;-68
2022/02/09 16:22:52;;;;;;;6.07;4.60;;;10.50;99.90;;;;;;4997692;28;20493;-70
2022/02/09 16:25:35;;;;;;;6.33;4.37;;;10.50;99.90;;;;;;5007762;28;20947;-69
2022/02/09 16:38:41;;;;;;;7.40;4.80;;;10.60;99.90;;;;;;5068520;28;20984;-69
2022/02/09 16:46:38;;;;;;;5.33;3.90;;;10.50;99.90;;;;;;5080819;28;20421;-68
2022/02/09 16:49:25;;;;;;;5.17;3.80;;;10.50;99.90;;;;;;5063663;28;20419;-68
2022/02/09 16:52:01;;;;;;;8.57;4.03;;;10.50;99.90;;;;;;5095994;28;20427;-70
2022/02/09 16:54:54;;;;;;;6.63;4.40;;;10.40;99.90;;;;;;5078232;28;20425;-69
2022/02/09 17:11:09;;;;;;;10.40;4.80;;;10.50;99.90;;;;;;5095576;28;20894;-70
2022/02/09 17:19:23;;;;;;;9.17;5.70;;;10.50;99.90;;;;;;5073237;28;20752;-68
2022/02/09 17:21:49;;;;;;;5.70;4.40;;;10.50;99.90;;;;;;5069931;28;20459;-69
2022/02/09 17:24:14;;;;;;;6.13;4.83;;;10.50;99.90;;;;;;5065303;28;20202;-69
2022/02/09 17:26:41;;;;;;;5.00;4.50;;;10.50;99.90;;;;;;5066470;28;20205;-69
2022/02/09 17:29:06;;;;;;;5.53;4.63;;;10.60;99.90;;;;;;5074186;28;20185;-69
2022/02/09 17:34:57;;;;;;;5.13;4.30;;;10.50;99.90;;;;;;5011645;28;20190;-69
2022/02/09 17:53:28;;;;;;;8.90;6.40;;;10.30;99.90;;;;;;4987180;28;20841;-68
2022/02/09 17:56:02;;;;;;;7.20;5.30;;;10.30;99.90;;;;;;4969322;28;20458;-69
2022/02/09 17:58:40;;;;;;;7.70;5.80;;;10.30;99.90;;;;;;4968023;28;20423;-69
2022/02/09 18:01:07;;;;;;;9.13;6.40;;;10.20;99.90;;;;;;4973248;28;20978;-68
2022/02/09 18:03:32;;;;;;;12.57;6.17;;;10.00;99.90;;;;;;4988141;28;20455;-69
2022/02/09 18:06:11;;;;;;;11.27;6.23;;;10.00;99.90;;;;;;4987620;28;20400;-70
2022/02/09 18:14:34;;;;;;;12.40;8.80;;;9.80;99.90;;;;;;5003356;28;20493;-69
2022/02/09 18:26:56;;;;;;;11.00;7.60;;;9.60;99.90;;;;;;4982174;28;20478;-68
2022/02/09 18:31:32;;;;;;;7.53;6.40;;;9.30;99.90;;;;;;5023176;28;20917;-68
2022/02/09 18:40:31;;;;;;;7.37;5.70;;;9.20;99.90;;;;;;5015558;28;20270;-68
2022/02/09 18:45:22;;;;;;;7.97;5.07;;;9.20;99.90;;;;;;4982365;28;20442;-69
2022/02/09 19:04:24;;;;;;;7.67;5.37;;;9.30;99.90;;;;;;5053031;28;20422;-69
2022/02/09 19:28:58;;;;;;;6.80;6.03;;;9.40;99.90;;;;;;5071614;28;20598;-69
2022/02/09 19:31:04;;;;;;;9.30;7.03;;;9.30;99.90;;;;;;5071863;28;20450;-68
2022/02/09 19:46:53;;;;;;;10.67;8.17;;;9.40;99.90;;;;;;5065661;28;20551;-69
2022/02/09 19:49:36;;;;;;;13.40;7.90;;;9.30;99.90;;;;;;5071523;28;20207;-70
2022/02/09 19:57:08;;;;;;;13.60;9.20;;;9.30;99.90;;;;;;5092364;28;20415;-70
2022/02/09 19:59:36;;;;;;;13.90;8.93;;;9.30;99.90;;;;;;5090729;28;20439;-70
2022/02/09 20:02:02;;;;;;;11.50;8.20;;;9.40;99.90;;;;;;5085604;28;20874;-68
2022/02/09 20:04:28;;;;;;;11.50;8.20;;;9.40;99.90;;;;;;5075048;28;21242;-69
2022/02/09 20:06:54;;;;;;;9.43;6.60;;;9.40;99.90;;;;;;5069995;28;20447;-68
2022/02/09 20:09:24;;;;;;;8.90;6.70;;;9.40;99.90;;;;;;5070735;28;20211;-69
2022/02/09 20:11:50;;;;;;;10.53;5.80;;;9.40;99.90;;;;;;5070413;28;20189;-68
2022/02/09 20:14:16;;;;;;;8.33;7.10;;;9.40;99.90;;;;;;5072091;28;20445;-68
2022/02/09 20:16:41;;;;;;;13.53;6.97;;;9.50;99.90;;;;;;5070957;28;20415;-68
2022/02/09 20:19:07;;;;;;;9.57;7.30;;;9.50;99.90;;;;;;5071071;28;20178;-68
2022/02/09 20:21:32;;;;;;;8.23;6.73;;;9.40;99.90;;;;;;5070345;28;20215;-67
2022/02/09 20:24:01;;;;;;;15.30;8.43;;;9.40;99.90;;;;;;5070446;28;20178;-68
2022/02/09 20:26:27;;;;;;;7.67;6.93;;;9.50;99.90;;;;;;5088822;28;20615;-67
2022/02/09 20:29:04;;;;;;;7.63;6.70;;;9.40;99.90;;;;;;5071542;28;20458;-68
2022/02/09 20:31:34;;;;;;;11.17;7.87;;;9.50;99.90;;;;;;5089442;28;20219;-72
2022/02/09 20:34:07;;;;;;;12.27;7.33;;;9.50;99.90;;;;;;5062800;28;20916;-69
2022/02/09 20:36:34;;;;;;;12.20;7.90;;;9.50;99.90;;;;;;5084025;28;21192;-69
2022/02/09 20:39:02;;;;;;;13.20;8.37;;;9.40;99.90;;;;;;5080260;28;20469;-69
2022/02/09 20:41:28;;;;;;;13.00;9.93;;;9.50;99.90;;;;;;5069572;28;20521;-69
2022/02/09 20:44:21;;;;;;;10.00;8.57;;;9.40;99.90;;;;;;5069564;28;20486;-69
2022/02/09 20:46:47;;;;;;;11.73;9.00;;;9.40;99.90;;;;;;5068894;28;20998;-69
2022/02/09 20:49:12;;;;;;;10.67;9.57;;;9.40;99.90;;;;;;5070863;22;20501;-69
2022/02/09 20:51:38;;;;;;;10.70;8.73;;;9.40;99.90;;;;;;5037734;28;20190;-70
2022/02/09 20:54:04;;;;;;;10.07;8.60;;;9.40;99.90;;;;;;5029051;28;20163;-70
2022/02/09 20:56:29;;;;;;;10.43;9.07;;;9.40;99.90;;;;;;5028457;28;20175;-69
2022/02/09 20:59:02;;;;;;;8.93;8.03;;;9.40;99.90;;;;;;5029341;28;20202;-69
2022/02/09 21:01:37;;;;;;;11.80;8.77;;;9.40;99.90;;;;;;5042708;28;20170;-70
2022/02/09 21:04:06;;;;;;;10.40;8.50;;;9.50;99.90;;;;;;5057914;28;20519;-69
2022/02/09 21:17:51;;;;;;;15.20;9.53;;;9.50;99.90;;;;;;5048115;28;20833;-69
2022/02/09 21:20:31;;;;;;;17.60;10.00;;;9.50;99.90;;;;;;5047780;28;20806;-70
2022/02/09 21:49:05;;;;;;;10.67;9.33;;;9.40;99.90;;;;;;5047190;28;20429;-69
2022/02/09 21:54:50;;;;;;;17.50;10.70;;;9.50;99.90;;;;;;5034691;28;21107;-70
2022/02/09 22:19:16;;;;;;;15.70;12.10;;;9.30;99.90;;;;;;5027629;28;20381;-69
2022/02/09 22:19:30;;;;;;;16.93;11.37;;;9.40;99.90;;;;;;5031625;28;20502;-70
2022/02/09 22:45:27;;;;;;;14.07;12.63;;;9.30;99.90;;;;;;5047663;28;20174;-68
2022/02/09 22:48:34;;;;;;;17.33;11.50;;;9.30;99.90;;;;;;5046983;28;20472;-70
2022/02/09 22:56:30;;;;;;;13.33;9.83;;;9.30;99.90;;;;;;5050881;28;20497;-69
2022/02/09 22:58:55;;;;;;;15.23;10.23;;;9.30;99.90;;;;;;5051327;28;20443;-70
2022/02/09 23:01:33;;;;;;;12.47;10.40;;;9.20;99.90;;;;;;5032278;28;20964;-70
2022/02/09 23:11:53;;;;;;;15.27;10.33;;;8.90;99.90;;;;;;5051133;28;20920;-70
2022/02/09 23:14:31;;;;;;;14.77;10.10;;;8.90;99.90;;;;;;5051562;28;20439;-70
2022/02/09 23:17:23;;;;;;;12.67;9.80;;;8.90;99.90;;;;;;5044984;28;20507;-69
2022/02/09 23:20:38;;;;;;;14.63;9.07;;;8.90;99.90;;;;;;5050560;28;20468;-70
2022/02/09 23:23:31;;;;;;;12.00;10.40;;;8.90;99.90;;;;;;5031104;28;20503;-70
2022/02/09 23:26:31;;;;;;;12.67;9.53;;;8.80;99.90;;;;;;5029894;28;20806;-69
